createdAt,value
2023-02-25T00:01:36.918Z,15.43
2023-02-25T00:08:59.190Z,14.63
2023-02-25T00:11:27.606Z,16.02
2023-02-25T00:13:55.521Z,16.85
2023-02-25T00:16:24.752Z,14.82
2023-02-25T00:18:56.694Z,20.08
2023-02-25T00:21:25.420Z,22.33
2023-02-25T00:24:00.098Z,17.95
2023-02-25T00:26:32.012Z,23.05
2023-02-25T00:31:27.675Z,17.85
2023-02-25T00:33:55.267Z,16.13
2023-02-25T00:36:25.660Z,16.38
2023-02-25T00:38:55.325Z,16.67
2023-02-25T00:41:27.048Z,18.40
2023-02-25T00:43:57.234Z,24.58
2023-02-25T00:46:25.788Z,17.75
2023-02-25T00:48:53.664Z,17.15
2023-02-25T00:51:24.241Z,16.42
2023-02-25T00:53:52.860Z,21.13
2023-02-25T00:56:20.788Z,16.67
2023-02-25T00:58:50.473Z,17.15
2023-02-25T01:01:20.259Z,18.83
2023-02-25T01:03:49.557Z,18.05
2023-02-25T01:06:17.346Z,20.98
2023-02-25T01:08:45.520Z,21.92
2023-02-25T01:11:15.801Z,18.42
2023-02-25T01:13:44.094Z,20.17
2023-02-25T01:16:17.088Z,18.77
2023-02-25T01:18:46.437Z,18.45
2023-02-25T01:21:21.479Z,19.17
2023-02-25T01:23:58.821Z,21.95
2023-02-25T01:26:28.036Z,18.85
2023-02-25T01:28:56.050Z,21.63
2023-02-25T01:31:29.531Z,21.30
2023-02-25T01:33:59.027Z,21.83
2023-02-25T01:36:27.522Z,18.95
2023-02-25T01:38:56.492Z,20.02
2023-02-25T01:41:25.307Z,18.13
2023-02-25T01:44:10.761Z,23.60
2023-02-25T01:46:39.876Z,19.92
2023-02-25T01:49:19.115Z,17.75
2023-02-25T01:51:50.701Z,18.38
2023-02-25T01:54:19.846Z,18.73
2023-02-25T01:56:53.844Z,18.60
2023-02-25T01:59:24.134Z,18.33
2023-02-25T02:01:52.314Z,18.83
2023-02-25T02:04:20.661Z,19.08
2023-02-25T02:06:50.056Z,18.88
2023-02-25T02:09:24.124Z,22.60
2023-02-25T02:11:51.767Z,20.70
2023-02-25T02:14:28.914Z,16.65
2023-02-25T02:22:24.391Z,20.63
2023-02-25T02:24:54.978Z,20.33
2023-02-25T02:27:43.986Z,23.40
2023-02-25T02:30:47.907Z,22.25
2023-02-25T02:33:53.373Z,21.92
2023-02-25T02:36:38.708Z,20.73
2023-02-25T02:39:21.227Z,19.15
2023-02-25T02:42:04.482Z,19.30
2023-02-25T02:44:43.674Z,22.17
2023-02-25T02:47:18.933Z,20.10
2023-02-25T02:49:56.551Z,18.27
2023-02-25T02:52:29.398Z,20.00
2023-02-25T02:55:07.863Z,20.17
2023-02-25T02:57:38.496Z,20.23
2023-02-25T03:00:18.083Z,23.52
2023-02-25T03:03:10.641Z,20.13
2023-02-25T03:05:41.600Z,21.42
2023-02-25T03:08:25.118Z,19.63
2023-02-25T03:10:52.905Z,21.15
2023-02-25T03:13:22.271Z,20.30
2023-02-25T03:15:52.010Z,20.70
2023-02-25T03:18:36.145Z,19.40
2023-02-25T03:21:13.192Z,18.73
2023-02-25T03:23:43.279Z,22.20
2023-02-25T03:26:30.246Z,19.75
2023-02-25T03:29:02.334Z,24.70
2023-02-25T03:31:36.776Z,16.45
2023-02-25T03:34:17.821Z,23.30
2023-02-25T03:36:52.278Z,20.20
2023-02-25T03:39:25.014Z,18.42
2023-02-25T03:42:01.834Z,21.40
2023-02-25T03:44:34.936Z,24.63
2023-02-25T03:47:04.817Z,18.75
2023-02-25T03:49:46.583Z,20.60
2023-02-25T03:52:20.769Z,19.08
2023-02-25T03:54:55.305Z,22.42
2023-02-25T03:57:27.612Z,18.63
2023-02-25T03:59:56.587Z,20.67
2023-02-25T04:02:33.035Z,21.83
2023-02-25T04:05:00.848Z,20.67
2023-02-25T04:07:28.652Z,17.80
2023-02-25T04:09:56.275Z,18.50
2023-02-25T04:14:50.979Z,18.27
2023-02-25T04:17:19.418Z,17.38
2023-02-25T04:19:46.926Z,18.02
2023-02-25T04:27:09.186Z,21.10
2023-02-25T04:29:36.702Z,18.85
2023-02-25T04:34:32.869Z,19.15
2023-02-25T04:39:29.743Z,17.30
2023-02-25T04:41:57.294Z,22.38
2023-02-25T04:44:25.136Z,18.10
2023-02-25T04:46:52.698Z,18.67
2023-02-25T04:51:51.592Z,18.80
2023-02-25T04:54:20.670Z,24.63
2023-02-25T04:56:49.050Z,21.25
2023-02-25T04:59:16.953Z,17.13
2023-02-25T05:01:44.522Z,17.92
2023-02-25T05:04:12.155Z,16.15
2023-02-25T05:06:39.676Z,16.17
2023-02-25T05:09:09.367Z,17.85
2023-02-25T05:11:37.824Z,19.98
2023-02-25T05:23:54.469Z,21.42
2023-02-25T05:26:24.786Z,16.40
2023-02-25T05:28:55.105Z,18.80
2023-02-25T05:31:24.913Z,15.50
2023-02-25T05:33:53.353Z,15.82
2023-02-25T05:36:21.180Z,17.48
2023-02-25T05:38:49.310Z,15.48
2023-02-25T05:41:16.782Z,14.38
2023-02-25T05:43:45.949Z,17.10
2023-02-25T05:46:14.169Z,15.25
2023-02-25T05:48:46.766Z,17.95
2023-02-25T05:51:20.507Z,13.05
2023-02-25T05:53:49.330Z,11.82
2023-02-25T05:56:25.750Z,16.52
2023-02-25T05:58:55.035Z,13.75
2023-02-25T06:01:27.720Z,13.60
2023-02-25T06:03:58.858Z,11.25
2023-02-25T06:06:29.971Z,14.25
2023-02-25T06:08:58.211Z,17.85
2023-02-25T06:11:28.574Z,15.02
2023-02-25T06:13:57.558Z,17.30
2023-02-25T06:16:26.057Z,16.08
2023-02-25T06:18:53.909Z,13.70
2023-02-25T06:26:18.337Z,15.88
2023-02-25T06:28:45.965Z,14.93
2023-02-25T06:31:16.433Z,14.32
2023-02-25T06:33:45.762Z,12.85
2023-02-25T06:36:13.903Z,14.57
2023-02-25T06:38:41.518Z,13.35
2023-02-25T06:41:20.854Z,15.23
2023-02-25T06:43:52.289Z,13.85
2023-02-25T06:46:23.287Z,14.27
2023-02-25T06:48:51.076Z,13.63
2023-02-25T06:56:16.321Z,13.10
2023-02-25T06:58:44.021Z,17.42
2023-02-25T07:01:14.490Z,17.50
2023-02-25T07:03:46.409Z,10.65
2023-02-25T07:06:18.144Z,12.30
2023-02-25T07:08:46.496Z,12.57
2023-02-25T07:11:19.855Z,12.43
2023-02-25T07:13:48.529Z,12.95
2023-02-25T07:16:17.139Z,14.02
2023-02-25T07:18:45.236Z,16.52
2023-02-25T07:21:13.858Z,11.80
2023-02-25T07:23:42.725Z,10.27
2023-02-25T07:26:12.486Z,13.27
2023-02-25T07:28:40.712Z,12.35
2023-02-25T07:31:14.456Z,9.23
2023-02-25T07:33:41.991Z,6.28
2023-02-25T07:38:38.741Z,10.27
2023-02-25T07:41:12.090Z,11.95
2023-02-25T07:43:45.439Z,9.57
2023-02-25T07:46:13.476Z,10.52
2023-02-25T07:48:41.109Z,10.93
2023-02-25T07:51:15.814Z,9.23
2023-02-25T07:53:43.604Z,12.85
2023-02-25T07:56:11.427Z,8.85
2023-02-25T07:58:40.101Z,9.35
2023-02-25T08:01:13.131Z,9.45
2023-02-25T08:03:40.649Z,15.88
2023-02-25T08:08:37.287Z,8.75
2023-02-25T08:11:06.540Z,11.05
2023-02-25T08:13:34.470Z,10.00
2023-02-25T08:16:11.654Z,7.53
2023-02-25T08:21:12.270Z,7.15
2023-02-25T08:23:39.832Z,10.48
2023-02-25T08:26:09.871Z,10.82
2023-02-25T08:28:37.707Z,14.25
2023-02-25T08:31:08.290Z,8.05
2023-02-25T08:33:35.904Z,11.60
2023-02-25T08:38:38.436Z,13.68
2023-02-25T08:41:07.563Z,8.70
2023-02-25T08:43:35.918Z,9.52
2023-02-25T08:46:04.751Z,8.02
2023-02-25T08:48:32.831Z,10.75
2023-02-25T08:51:08.846Z,9.32
2023-02-25T08:53:38.943Z,10.48
2023-02-25T08:56:11.795Z,12.93
2023-02-25T08:58:40.654Z,6.32
2023-02-25T09:01:13.971Z,5.53
2023-02-25T09:03:52.722Z,9.00
2023-02-25T09:06:23.556Z,12.00
2023-02-25T09:08:52.680Z,11.73
2023-02-25T09:11:21.997Z,9.00
2023-02-25T09:13:49.631Z,12.75
2023-02-25T09:18:46.465Z,10.00
2023-02-25T09:21:14.606Z,7.95
2023-02-25T09:23:42.771Z,10.40
2023-02-25T09:26:10.740Z,7.00
2023-02-25T09:28:38.208Z,7.85
2023-02-25T09:33:36.010Z,8.13
2023-02-25T09:36:08.938Z,6.15
2023-02-25T09:38:38.290Z,10.10
2023-02-25T09:41:36.158Z,9.65
2023-02-25T09:44:15.710Z,8.25
2023-02-25T09:46:52.613Z,6.05
2023-02-25T09:49:32.462Z,8.93
2023-02-25T09:52:07.897Z,12.23
2023-02-25T09:54:45.016Z,9.00
2023-02-25T09:57:19.783Z,4.10
2023-02-25T09:59:49.000Z,5.28
2023-02-25T10:02:29.776Z,6.90
2023-02-25T10:05:39.313Z,9.30
2023-02-25T10:08:09.565Z,6.15
2023-02-25T10:10:58.918Z,6.07
2023-02-25T10:13:40.608Z,8.20
2023-02-25T10:16:28.783Z,6.88
2023-02-25T10:19:15.824Z,3.58
2023-02-25T10:24:34.905Z,7.55
2023-02-25T10:27:27.977Z,6.25
2023-02-25T10:30:11.312Z,5.32
2023-02-25T10:32:41.785Z,7.55
2023-02-25T10:35:17.694Z,8.02
2023-02-25T10:37:45.484Z,5.55
2023-02-25T10:40:19.888Z,9.07
2023-02-25T10:42:50.682Z,7.03
2023-02-25T10:45:26.454Z,8.68
2023-02-25T10:48:11.896Z,3.95
2023-02-25T10:50:45.983Z,5.72
2023-02-25T10:53:16.511Z,8.23
2023-02-25T10:55:43.970Z,5.72
2023-02-25T10:58:34.601Z,4.93
2023-02-25T11:01:28.552Z,7.72
2023-02-25T11:03:59.048Z,8.80
2023-02-25T11:06:28.768Z,5.45
2023-02-25T11:09:00.340Z,5.82
2023-02-25T11:11:33.657Z,7.05
2023-02-25T11:14:13.493Z,11.40
2023-02-25T11:16:43.638Z,4.50
2023-02-25T11:19:23.606Z,6.47
2023-02-25T11:21:52.067Z,8.95
2023-02-25T11:24:31.450Z,4.88
2023-02-25T11:27:00.665Z,5.22
2023-02-25T11:29:35.236Z,4.15
2023-02-25T11:32:09.163Z,8.82
2023-02-25T11:34:59.958Z,4.97
2023-02-25T11:37:27.944Z,9.48
2023-02-25T11:39:56.278Z,10.30
2023-02-25T11:42:26.834Z,9.10
2023-02-25T11:45:02.663Z,6.57
2023-02-25T11:47:33.338Z,6.82
2023-02-25T11:50:21.681Z,10.63
2023-02-25T11:53:42.609Z,9.27
2023-02-25T11:56:23.650Z,6.50
2023-02-25T11:59:37.283Z,6.05
2023-02-25T12:02:33.709Z,4.18
2023-02-25T12:05:41.496Z,6.22
2023-02-25T12:08:47.449Z,7.55
2023-02-25T12:11:33.471Z,6.95
2023-02-25T12:14:22.853Z,4.72
2023-02-25T12:17:08.316Z,3.67
2023-02-25T12:20:04.983Z,5.32
2023-02-25T12:22:50.813Z,5.90
2023-02-25T12:25:31.942Z,4.47
2023-02-25T12:28:09.098Z,8.77
2023-02-25T12:31:01.833Z,12.00
2023-02-25T12:33:50.579Z,7.35
2023-02-25T12:36:24.123Z,7.78
2023-02-25T12:39:07.368Z,3.60
2023-02-25T12:41:48.344Z,4.88
2023-02-25T12:44:53.920Z,5.45
2023-02-25T12:47:57.755Z,5.23
2023-02-25T12:50:54.346Z,3.72
2023-02-25T12:53:40.464Z,4.95
2023-02-25T12:56:35.956Z,4.40
2023-02-25T12:59:03.493Z,5.38
2023-02-25T13:01:48.732Z,6.75
2023-02-25T13:04:40.452Z,5.97
2023-02-25T13:07:20.167Z,6.50
2023-02-25T13:13:23.839Z,7.78
2023-02-25T13:16:15.336Z,6.47
2023-02-25T13:19:05.880Z,7.32
2023-02-25T13:21:45.149Z,6.78
2023-02-25T13:24:29.448Z,3.05
2023-02-25T13:27:13.948Z,6.70
2023-02-25T13:29:56.361Z,8.75
2023-02-25T13:32:27.431Z,6.47
2023-02-25T13:35:13.972Z,7.22
2023-02-25T13:37:59.190Z,6.63
2023-02-25T13:40:35.840Z,6.68
2023-02-25T13:43:29.400Z,4.82
2023-02-25T13:46:08.316Z,6.95
2023-02-25T13:48:54.476Z,7.95
2023-02-25T13:51:53.061Z,8.70
2023-02-25T13:54:37.226Z,2.60
2023-02-25T13:57:27.739Z,4.90
2023-02-25T14:00:04.577Z,4.90
2023-02-25T14:03:17.448Z,8.93
2023-02-25T14:05:50.761Z,5.97
2023-02-25T14:08:39.921Z,9.98
2023-02-25T14:11:29.948Z,4.47
2023-02-25T14:13:57.413Z,9.05
2023-02-25T14:19:17.546Z,7.45
2023-02-25T14:22:09.620Z,9.80
2023-02-25T14:24:49.311Z,8.20
2023-02-25T14:27:45.555Z,8.40
2023-02-25T14:30:22.083Z,8.90
2023-02-25T14:33:09.340Z,6.75
2023-02-25T14:36:02.831Z,3.63
2023-02-25T14:39:21.849Z,12.38
2023-02-25T14:42:08.246Z,6.93
2023-02-25T14:44:45.319Z,5.10
2023-02-25T14:47:38.996Z,5.63
2023-02-25T14:50:18.657Z,5.78
2023-02-25T14:53:20.476Z,7.28
2023-02-25T14:56:02.936Z,7.03
2023-02-25T14:59:17.568Z,5.65
2023-02-25T15:02:09.824Z,6.80
2023-02-25T15:04:55.864Z,5.15
2023-02-25T15:07:26.397Z,5.78
2023-02-25T15:10:31.622Z,8.52
2023-02-25T15:13:08.160Z,3.28
2023-02-25T15:16:06.598Z,6.10
2023-02-25T15:19:12.400Z,4.03
2023-02-25T15:21:44.130Z,5.60
2023-02-25T15:24:39.351Z,8.70
2023-02-25T15:27:33.921Z,7.63
2023-02-25T15:30:47.975Z,8.00
2023-02-25T15:33:39.608Z,7.47
2023-02-25T15:36:16.299Z,5.47
2023-02-25T15:38:45.766Z,5.40
2023-02-25T15:41:42.338Z,4.50
2023-02-25T15:44:12.656Z,3.92
2023-02-25T15:46:46.007Z,8.27
2023-02-25T15:49:25.689Z,11.00
2023-02-25T15:51:56.483Z,7.72
2023-02-25T15:54:30.894Z,12.73
2023-02-25T15:57:10.316Z,9.05
2023-02-25T15:59:49.415Z,12.18
2023-02-25T16:02:29.158Z,11.73
2023-02-25T16:05:08.644Z,9.25
2023-02-25T16:07:39.933Z,7.75
2023-02-25T16:10:18.853Z,10.10
2023-02-25T16:12:50.435Z,9.60
2023-02-25T16:15:25.749Z,9.57
2023-02-25T16:17:56.672Z,10.80
2023-02-25T16:20:33.877Z,9.60
2023-02-25T16:25:45.435Z,7.03
2023-02-25T16:28:43.355Z,9.10
2023-02-25T16:31:27.668Z,12.10
2023-02-25T16:34:35.952Z,9.32
2023-02-25T16:37:25.929Z,5.75
2023-02-25T16:39:54.104Z,8.15
2023-02-25T16:42:22.171Z,8.93
2023-02-25T16:45:08.880Z,9.93
2023-02-25T16:47:38.241Z,8.93
2023-02-25T16:50:13.634Z,9.05
2023-02-25T16:52:47.973Z,9.05
2023-02-25T16:55:29.554Z,10.88
2023-02-25T16:58:15.441Z,9.73
2023-02-25T17:00:57.624Z,9.63
2023-02-25T17:03:31.039Z,9.50
2023-02-25T17:06:20.277Z,7.13
2023-02-25T17:08:50.430Z,8.57
2023-02-25T17:11:24.208Z,11.98
2023-02-25T17:13:56.034Z,10.05
2023-02-25T17:16:29.751Z,6.70
2023-02-25T17:19:01.154Z,7.10
2023-02-25T17:21:35.529Z,5.78
2023-02-25T17:24:07.397Z,10.75
2023-02-25T17:26:40.028Z,12.30
2023-02-25T17:29:11.858Z,10.88
2023-02-25T17:31:51.753Z,8.50
2023-02-25T17:34:31.874Z,10.18
2023-02-25T17:37:03.357Z,8.93
2023-02-25T17:39:31.271Z,11.40
2023-02-25T17:41:58.788Z,13.15
2023-02-25T17:44:47.514Z,9.93
2023-02-25T17:47:22.721Z,9.40
2023-02-25T17:49:51.352Z,8.13
2023-02-25T17:52:29.180Z,10.02
2023-02-25T17:55:21.200Z,12.25
2023-02-25T17:57:48.833Z,13.70
2023-02-25T18:00:26.261Z,11.20
2023-02-25T18:03:17.714Z,11.27
2023-02-25T18:05:55.304Z,13.07
2023-02-25T18:08:24.187Z,11.80
2023-02-25T18:10:57.897Z,11.93
2023-02-25T18:13:32.317Z,14.05
2023-02-25T18:16:29.540Z,14.13
2023-02-25T18:18:59.958Z,9.10
2023-02-25T18:21:28.577Z,12.95
2023-02-25T18:23:57.526Z,9.25
2023-02-25T18:26:25.750Z,11.35
2023-02-25T18:28:57.518Z,10.35
2023-02-25T18:31:25.170Z,10.90
2023-02-25T18:33:52.897Z,9.65
2023-02-25T18:36:27.282Z,12.18
2023-02-25T18:39:00.864Z,9.98
2023-02-25T18:41:28.851Z,11.98
2023-02-25T18:44:04.529Z,8.55
2023-02-25T18:46:32.126Z,9.73
2023-02-25T18:48:59.578Z,10.38
2023-02-25T18:56:21.848Z,11.60
2023-02-25T18:58:49.294Z,13.45
2023-02-25T19:03:51.154Z,8.73
2023-02-25T19:06:18.686Z,13.57
2023-02-25T19:11:23.315Z,9.45
2023-02-25T19:16:19.338Z,14.13
2023-02-25T19:18:47.527Z,11.93
2023-02-25T19:21:18.444Z,13.85
2023-02-25T19:23:46.739Z,11.50
2023-02-25T19:26:16.132Z,12.15
2023-02-25T19:28:43.679Z,8.93
2023-02-25T19:33:40.036Z,13.40
2023-02-25T19:36:08.833Z,14.55
2023-02-25T19:38:36.486Z,12.30
2023-02-25T19:41:06.117Z,13.82
2023-02-25T19:43:34.466Z,13.63
2023-02-25T19:46:02.760Z,14.02
2023-02-25T19:48:30.250Z,11.75
2023-02-25T19:58:22.707Z,11.07
2023-02-25T20:00:50.273Z,11.38
2023-02-25T20:03:17.951Z,12.18
2023-02-25T20:08:12.670Z,11.90
2023-02-25T20:13:09.062Z,9.93
2023-02-25T20:15:36.730Z,9.27
2023-02-25T20:18:04.542Z,10.15
2023-02-25T20:20:31.947Z,7.68
